createdAt,value
2022-12-20T00:00:53.134Z,14.70
2022-12-20T00:03:23.537Z,16.60
2022-12-20T00:05:50.830Z,16.35
2022-12-20T00:08:18.319Z,14.77
2022-12-20T00:10:46.307Z,11.07
2022-12-20T00:13:14.092Z,12.95
2022-12-20T00:15:41.292Z,11.73
2022-12-20T00:18:08.653Z,12.95
2022-12-20T00:20:35.908Z,10.82
2022-12-20T00:23:03.450Z,12.48
2022-12-20T00:25:30.590Z,12.27
2022-12-20T00:27:57.886Z,12.25
2022-12-20T00:30:25.059Z,10.45
2022-12-20T00:32:52.339Z,10.98
2022-12-20T00:35:19.553Z,11.55
2022-12-20T00:37:46.712Z,10.38
2022-12-20T00:40:14.015Z,9.82
2022-12-20T00:42:41.180Z,10.18
2022-12-20T00:45:08.684Z,9.32
2022-12-20T00:47:35.805Z,9.18
2022-12-20T00:50:02.963Z,7.57
2022-12-20T00:52:30.117Z,7.32
2022-12-20T00:54:57.321Z,8.90
2022-12-20T00:57:24.974Z,10.18
2022-12-20T00:59:52.153Z,9.25
2022-12-20T01:02:19.487Z,8.30
2022-12-20T01:04:46.848Z,9.45
2022-12-20T01:07:14.572Z,9.75
2022-12-20T01:09:41.810Z,8.25
2022-12-20T01:12:09.012Z,9.93
2022-12-20T01:14:36.218Z,7.28
2022-12-20T01:17:03.519Z,6.97
2022-12-20T01:19:30.866Z,6.20
2022-12-20T01:21:58.187Z,8.32
2022-12-20T01:24:25.434Z,6.25
2022-12-20T01:26:52.591Z,6.80
2022-12-20T01:29:19.717Z,8.30
2022-12-20T01:31:46.951Z,5.38
2022-12-20T01:34:14.184Z,5.05
2022-12-20T01:36:42.262Z,6.53
2022-12-20T01:39:11.934Z,5.80
2022-12-20T01:41:39.690Z,5.88
2022-12-20T01:44:19.099Z,5.70
2022-12-20T01:46:47.284Z,7.25
2022-12-20T01:49:22.831Z,5.60
2022-12-20T01:51:52.522Z,5.15
2022-12-20T01:54:31.608Z,4.70
2022-12-20T01:57:01.768Z,4.40
2022-12-20T01:59:29.368Z,3.03
2022-12-20T02:02:01.033Z,4.00
2022-12-20T02:04:28.405Z,4.70
2022-12-20T02:06:56.132Z,4.63
2022-12-20T02:09:23.881Z,3.88
2022-12-20T02:11:54.106Z,5.13
2022-12-20T02:14:27.597Z,3.78
2022-12-20T02:17:14.966Z,4.97
2022-12-20T02:19:53.021Z,4.25
2022-12-20T02:22:38.926Z,3.92
2022-12-20T02:25:15.430Z,3.67
2022-12-20T02:28:05.033Z,4.40
2022-12-20T02:30:34.821Z,3.78
2022-12-20T02:33:04.235Z,4.13
2022-12-20T02:35:32.781Z,4.03
2022-12-20T02:38:01.032Z,3.33
2022-12-20T02:40:48.550Z,3.92
2022-12-20T02:43:34.341Z,3.05
2022-12-20T02:46:02.577Z,4.13
2022-12-20T02:48:31.806Z,3.15
2022-12-20T02:50:59.861Z,2.42
2022-12-20T02:53:29.257Z,2.65
2022-12-20T02:56:13.930Z,2.45
2022-12-20T02:58:55.990Z,4.05
2022-12-20T03:01:29.158Z,3.50
2022-12-20T03:03:57.585Z,4.30
2022-12-20T03:06:24.841Z,3.97
2022-12-20T03:08:52.144Z,3.53
2022-12-20T03:11:20.668Z,4.15
2022-12-20T03:13:47.929Z,3.30
2022-12-20T03:16:15.850Z,2.60
2022-12-20T03:18:43.009Z,3.88
2022-12-20T03:21:10.130Z,3.70
2022-12-20T03:23:37.255Z,3.53
2022-12-20T03:26:04.401Z,4.45
2022-12-20T03:28:31.594Z,3.33
2022-12-20T03:30:58.817Z,2.97
2022-12-20T03:33:25.976Z,3.08
2022-12-20T03:35:53.601Z,2.92
2022-12-20T03:38:20.788Z,3.13
2022-12-20T03:40:47.967Z,2.15
2022-12-20T03:43:15.128Z,3.67
2022-12-20T03:45:42.284Z,2.40
2022-12-20T03:48:09.399Z,3.70
2022-12-20T03:50:37.229Z,4.03
2022-12-20T03:53:04.501Z,2.65
2022-12-20T03:55:31.684Z,2.92
2022-12-20T03:57:58.877Z,2.80
2022-12-20T04:00:26.243Z,2.40
2022-12-20T04:02:53.531Z,3.17
2022-12-20T04:05:21.312Z,3.35
2022-12-20T04:07:48.499Z,2.40
2022-12-20T04:10:15.765Z,3.83
2022-12-20T04:12:42.923Z,2.60
2022-12-20T04:15:10.322Z,2.08
2022-12-20T04:17:37.503Z,3.60
2022-12-20T04:20:18.936Z,2.35
2022-12-20T04:22:50.973Z,2.63
2022-12-20T04:25:20.476Z,3.20
2022-12-20T04:27:47.634Z,2.53
2022-12-20T04:30:15.052Z,2.08
2022-12-20T04:32:42.201Z,2.55
2022-12-20T04:35:09.552Z,3.13
2022-12-20T04:37:36.676Z,1.90
2022-12-20T04:40:04.170Z,3.45
2022-12-20T04:42:31.297Z,3.03
2022-12-20T04:44:58.479Z,2.72
2022-12-20T04:47:25.607Z,3.40
2022-12-20T04:49:52.744Z,2.17
2022-12-20T04:52:42.165Z,2.25
2022-12-20T04:55:14.450Z,2.35
2022-12-20T04:57:41.651Z,3.45
2022-12-20T05:00:09.109Z,2.00
2022-12-20T05:02:36.337Z,3.28
2022-12-20T05:05:03.775Z,2.92
2022-12-20T05:07:30.879Z,2.33
2022-12-20T05:09:58.060Z,3.17
2022-12-20T05:12:25.190Z,5.55
2022-12-20T05:14:52.347Z,5.45
2022-12-20T05:17:19.526Z,3.20
2022-12-20T05:19:46.693Z,5.10
2022-12-20T05:22:32.439Z,3.55
2022-12-20T05:25:18.463Z,3.58
2022-12-20T05:27:45.606Z,2.75
2022-12-20T05:30:13.028Z,2.95
2022-12-20T05:32:40.178Z,2.92
2022-12-20T05:35:07.727Z,2.40
2022-12-20T05:37:34.887Z,2.75
2022-12-20T05:40:02.081Z,3.83
2022-12-20T05:42:29.225Z,3.15
2022-12-20T05:44:56.404Z,3.05
2022-12-20T05:47:23.538Z,3.67
2022-12-20T05:49:50.698Z,3.45
2022-12-20T05:52:17.841Z,2.78
2022-12-20T05:54:45.054Z,3.33
2022-12-20T05:57:12.242Z,2.88
2022-12-20T05:59:39.596Z,3.22
2022-12-20T06:02:06.942Z,3.92
2022-12-20T06:04:34.499Z,3.75
2022-12-20T06:07:01.682Z,3.40
2022-12-20T06:09:30.142Z,5.70
2022-12-20T06:11:57.295Z,4.47
2022-12-20T06:14:24.478Z,4.68
2022-12-20T06:16:51.748Z,4.03
2022-12-20T06:19:21.707Z,2.97
2022-12-20T06:21:49.125Z,5.07
2022-12-20T06:24:16.499Z,4.10
2022-12-20T06:26:43.766Z,3.50
2022-12-20T06:29:14.172Z,2.83
2022-12-20T06:31:41.570Z,4.70
2022-12-20T06:34:08.748Z,3.15
2022-12-20T06:36:36.017Z,2.95
2022-12-20T06:39:09.173Z,3.15
2022-12-20T06:41:37.080Z,5.22
2022-12-20T06:44:04.341Z,3.90
2022-12-20T06:46:31.556Z,3.17
2022-12-20T06:48:58.768Z,3.17
2022-12-20T06:51:25.890Z,3.03
2022-12-20T06:53:53.148Z,3.50
2022-12-20T06:56:20.378Z,3.70
2022-12-20T06:58:47.650Z,3.70
2022-12-20T07:01:14.828Z,3.90
2022-12-20T07:03:42.067Z,4.43
2022-12-20T07:06:09.244Z,3.50
2022-12-20T07:08:36.414Z,4.70
2022-12-20T07:11:07.680Z,4.47
2022-12-20T07:13:35.098Z,3.08
2022-12-20T07:16:03.636Z,3.63
2022-12-20T07:18:31.097Z,4.15
2022-12-20T07:21:01.877Z,7.93
2022-12-20T07:23:29.405Z,6.07
2022-12-20T07:25:57.230Z,5.90
2022-12-20T07:28:25.035Z,4.35
2022-12-20T07:30:53.631Z,4.05
2022-12-20T07:33:21.293Z,3.08
2022-12-20T07:35:54.249Z,5.85
2022-12-20T07:38:21.916Z,3.35
2022-12-20T07:40:49.153Z,8.23
2022-12-20T07:43:16.293Z,6.10
2022-12-20T07:45:43.437Z,3.47
2022-12-20T07:48:15.857Z,4.32
2022-12-20T07:50:47.188Z,5.45
2022-12-20T07:53:14.968Z,4.00
2022-12-20T07:55:42.582Z,4.65
2022-12-20T07:58:10.825Z,3.67
2022-12-20T08:00:38.320Z,4.80
2022-12-20T08:03:25.963Z,4.15
2022-12-20T08:05:55.541Z,4.82
2022-12-20T08:08:22.920Z,3.13
2022-12-20T08:10:50.502Z,3.67
2022-12-20T08:13:17.910Z,3.33
2022-12-20T08:15:45.154Z,4.03
2022-12-20T08:18:12.319Z,5.50
2022-12-20T08:20:39.492Z,3.88
2022-12-20T08:23:06.745Z,4.53
2022-12-20T08:25:41.091Z,4.32
2022-12-20T08:28:09.283Z,3.55
2022-12-20T08:30:36.446Z,3.53
2022-12-20T08:33:03.636Z,5.38
2022-12-20T08:35:30.824Z,4.72
2022-12-20T08:37:58.121Z,4.45
2022-12-20T08:40:25.259Z,4.93
2022-12-20T08:42:52.465Z,6.20
2022-12-20T08:45:20.114Z,3.72
2022-12-20T08:47:47.883Z,4.07
2022-12-20T08:50:15.085Z,5.13
2022-12-20T08:52:42.242Z,3.05
2022-12-20T08:55:12.746Z,3.00
2022-12-20T08:57:40.602Z,5.18
2022-12-20T09:00:08.033Z,5.20
2022-12-20T09:02:37.736Z,4.57
2022-12-20T09:05:05.176Z,5.85
2022-12-20T09:07:32.390Z,5.95
2022-12-20T09:09:59.564Z,5.20
2022-12-20T09:12:26.727Z,3.42
2022-12-20T09:14:53.861Z,5.13
2022-12-20T09:17:21.181Z,6.32
2022-12-20T09:19:48.442Z,4.28
2022-12-20T09:22:15.602Z,6.05
2022-12-20T09:24:42.728Z,5.65
2022-12-20T09:27:09.866Z,6.43
2022-12-20T09:29:37.006Z,7.88
2022-12-20T09:32:04.352Z,6.88
2022-12-20T09:34:31.508Z,5.18
2022-12-20T09:36:58.872Z,13.07
2022-12-20T09:39:26.124Z,7.68
2022-12-20T09:41:53.293Z,7.70
2022-12-20T09:44:20.515Z,8.43
2022-12-20T09:46:49.520Z,9.93
2022-12-20T09:49:18.331Z,9.23
2022-12-20T09:51:48.546Z,9.65
2022-12-20T09:54:45.471Z,7.63
2022-12-20T09:57:21.816Z,7.55
2022-12-20T09:59:49.960Z,8.80
2022-12-20T10:05:24.469Z,8.27
2022-12-20T10:08:30.267Z,8.77
2022-12-20T10:11:04.060Z,12.95
2022-12-20T10:13:36.922Z,11.57
2022-12-20T10:16:16.411Z,7.97
2022-12-20T10:18:51.860Z,8.27
2022-12-20T10:21:35.181Z,7.63
2022-12-20T10:24:03.499Z,8.27
2022-12-20T10:26:31.158Z,12.98
2022-12-20T10:28:58.301Z,7.70
2022-12-20T10:31:25.688Z,7.15
2022-12-20T10:33:52.873Z,7.03
2022-12-20T10:36:22.911Z,10.25
2022-12-20T10:38:51.817Z,13.65
2022-12-20T10:41:22.333Z,11.27
2022-12-20T10:43:56.343Z,9.63
2022-12-20T10:46:24.266Z,8.68
2022-12-20T10:48:51.701Z,7.55
2022-12-20T10:51:21.213Z,7.60
2022-12-20T10:54:01.983Z,6.63
2022-12-20T10:56:30.344Z,7.40
2022-12-20T10:58:57.561Z,7.90
2022-12-20T11:01:27.038Z,5.75
2022-12-20T11:04:00.496Z,6.70
2022-12-20T11:06:30.216Z,6.80
2022-12-20T11:09:13.412Z,6.10
2022-12-20T11:11:40.692Z,5.35
2022-12-20T11:14:14.944Z,8.05
2022-12-20T11:16:42.423Z,4.57
2022-12-20T11:19:28.437Z,7.07
2022-12-20T11:21:55.548Z,6.20
2022-12-20T11:24:40.994Z,6.57
2022-12-20T11:27:13.493Z,6.55
2022-12-20T11:29:42.498Z,6.18
2022-12-20T11:32:10.117Z,6.50
2022-12-20T11:34:56.057Z,6.97
2022-12-20T11:37:31.430Z,4.97
2022-12-20T11:40:01.831Z,5.22
2022-12-20T11:42:29.335Z,6.38
2022-12-20T11:45:11.502Z,6.25
2022-12-20T11:47:44.783Z,6.40
2022-12-20T11:50:14.767Z,7.65
2022-12-20T11:53:01.015Z,8.05
2022-12-20T11:55:29.794Z,6.68
2022-12-20T11:58:18.517Z,8.70
2022-12-20T12:00:51.725Z,8.90
2022-12-20T12:03:29.818Z,8.85
2022-12-20T12:06:00.815Z,7.10
2022-12-20T12:08:35.293Z,9.35
2022-12-20T12:11:25.512Z,9.77
2022-12-20T12:13:57.950Z,10.45
2022-12-20T12:16:41.434Z,8.02
2022-12-20T12:19:12.799Z,5.90
2022-12-20T12:21:44.372Z,6.32
2022-12-20T12:24:20.785Z,6.82
2022-12-20T12:26:48.018Z,5.93
2022-12-20T12:29:19.385Z,9.27
2022-12-20T12:31:46.591Z,7.75
2022-12-20T12:34:23.006Z,7.18
2022-12-20T12:36:50.157Z,7.28
2022-12-20T12:39:38.485Z,9.05
2022-12-20T12:42:08.907Z,9.73
2022-12-20T12:44:54.867Z,9.50
2022-12-20T12:47:37.323Z,7.70
2022-12-20T12:50:05.920Z,6.93
2022-12-20T12:52:39.053Z,8.75
2022-12-20T12:55:26.265Z,11.15
2022-12-20T12:57:59.887Z,8.95
2022-12-20T13:00:46.016Z,10.13
2022-12-20T13:03:17.140Z,15.90
2022-12-20T13:05:44.408Z,13.63
2022-12-20T13:08:18.533Z,10.50
2022-12-20T13:10:45.733Z,13.20
2022-12-20T13:13:22.498Z,12.38
2022-12-20T13:15:50.619Z,11.32
2022-12-20T13:18:22.570Z,9.73
2022-12-20T13:21:18.301Z,10.93
2022-12-20T13:26:31.285Z,7.30
2022-12-20T13:29:18.359Z,11.52
2022-12-20T13:31:49.624Z,8.93
2022-12-20T13:34:39.967Z,7.45
2022-12-20T13:37:26.419Z,8.05
2022-12-20T13:39:53.602Z,8.00
2022-12-20T13:42:28.685Z,8.15
2022-12-20T13:44:56.120Z,7.25
2022-12-20T13:47:27.233Z,6.82
2022-12-20T13:49:54.388Z,5.90
2022-12-20T13:52:23.282Z,12.88
2022-12-20T13:54:52.256Z,12.02
2022-12-20T13:57:26.639Z,13.80
2022-12-20T14:00:01.788Z,11.88
2022-12-20T14:02:36.391Z,12.75
2022-12-20T14:05:08.503Z,11.15
2022-12-20T14:07:36.357Z,8.90
2022-12-20T14:10:04.818Z,8.85
2022-12-20T14:12:36.855Z,12.15
2022-12-20T14:15:21.319Z,8.65
2022-12-20T14:17:48.436Z,9.65
2022-12-20T14:20:20.786Z,11.10
2022-12-20T14:23:02.509Z,10.07
2022-12-20T14:25:31.545Z,9.20
2022-12-20T14:27:59.316Z,8.40
2022-12-20T14:30:32.374Z,8.65
2022-12-20T14:32:59.642Z,8.63
2022-12-20T14:35:27.377Z,27.73
2022-12-20T14:37:55.684Z,20.98
2022-12-20T14:40:23.415Z,22.42
2022-12-20T14:42:50.593Z,22.70
2022-12-20T14:45:22.875Z,12.98
2022-12-20T14:48:01.823Z,14.95
2022-12-20T14:50:31.467Z,17.38
2022-12-20T14:52:59.153Z,15.13
2022-12-20T14:55:30.591Z,14.10
2022-12-20T14:57:58.491Z,17.30
2022-12-20T15:00:30.472Z,21.13
2022-12-20T15:03:01.280Z,42.03
2022-12-20T15:05:35.414Z,39.58
2022-12-20T15:08:12.013Z,22.13
2022-12-20T15:10:39.294Z,16.67
2022-12-20T15:13:09.233Z,11.30
2022-12-20T15:15:36.412Z,13.15
2022-12-20T15:18:06.388Z,12.35
2022-12-20T15:20:33.519Z,11.55
2022-12-20T15:23:00.648Z,10.40
2022-12-20T15:25:27.904Z,17.90
2022-12-20T15:27:55.150Z,11.48
2022-12-20T15:30:22.466Z,14.05
2022-12-20T15:32:55.653Z,11.98
2022-12-20T15:35:24.435Z,12.70
2022-12-20T15:37:51.553Z,13.82
2022-12-20T15:40:18.870Z,10.93
2022-12-20T15:42:46.054Z,15.25
2022-12-20T15:45:16.787Z,13.95
2022-12-20T15:47:43.931Z,14.18
2022-12-20T15:50:12.407Z,11.75
2022-12-20T15:52:39.644Z,12.35
2022-12-20T15:55:07.095Z,11.75
2022-12-20T15:57:34.686Z,14.43
2022-12-20T16:00:03.495Z,164.18
2022-12-20T16:02:31.739Z,126.18
2022-12-20T16:04:59.465Z,19.85
2022-12-20T16:07:26.820Z,24.08
2022-12-20T16:09:54.212Z,29.95
2022-12-20T16:12:26.673Z,14.40
2022-12-20T16:14:53.895Z,13.93
2022-12-20T16:17:21.015Z,18.80
2022-12-20T16:19:48.216Z,17.35
2022-12-20T16:22:16.637Z,17.95
2022-12-20T16:24:44.184Z,15.20
2022-12-20T16:27:11.655Z,12.80
2022-12-20T16:29:38.787Z,13.88
2022-12-20T16:32:13.821Z,13.20
2022-12-20T16:34:41.081Z,14.73
2022-12-20T16:37:08.213Z,17.63
2022-12-20T16:39:35.385Z,16.35
2022-12-20T16:42:02.523Z,20.65
2022-12-20T16:44:30.267Z,22.98
2022-12-20T16:46:57.557Z,26.63
2022-12-20T16:49:24.758Z,24.48
2022-12-20T16:51:52.673Z,20.45
2022-12-20T16:54:22.318Z,18.65
2022-12-20T16:56:55.157Z,18.45
2022-12-20T16:59:23.429Z,17.00
2022-12-20T17:01:53.034Z,16.40
2022-12-20T17:04:21.214Z,15.20
2022-12-20T17:06:48.696Z,16.70
2022-12-20T17:09:16.331Z,17.10
2022-12-20T17:11:43.737Z,16.38
2022-12-20T17:14:13.205Z,15.52
2022-12-20T17:16:41.155Z,16.05
2022-12-20T17:19:08.430Z,16.02
2022-12-20T17:24:28.861Z,17.63
2022-12-20T17:26:56.012Z,19.45
2022-12-20T17:29:23.152Z,18.02
2022-12-20T17:31:50.376Z,17.33
2022-12-20T17:34:20.595Z,17.92
2022-12-20T17:36:48.733Z,18.05
2022-12-20T17:39:16.106Z,19.13
2022-12-20T17:41:44.181Z,16.52
2022-12-20T17:44:18.464Z,15.85
2022-12-20T17:46:45.824Z,15.75
2022-12-20T17:49:13.165Z,19.85
2022-12-20T17:51:40.448Z,15.45
2022-12-20T17:54:09.604Z,16.40
2022-12-20T17:56:37.391Z,14.48
2022-12-20T17:59:05.601Z,14.95
2022-12-20T18:01:33.771Z,16.63
2022-12-20T18:04:04.671Z,16.95
2022-12-20T18:06:33.468Z,19.42
2022-12-20T18:09:00.823Z,27.08
2022-12-20T18:11:28.959Z,25.48
2022-12-20T18:13:57.701Z,23.17
2022-12-20T18:16:26.653Z,23.63
2022-12-20T18:18:53.901Z,23.40
2022-12-20T18:21:21.673Z,22.60
2022-12-20T18:23:49.190Z,24.90
2022-12-20T18:26:20.961Z,23.85
2022-12-20T18:28:49.206Z,21.77
2022-12-20T18:31:18.165Z,16.98
2022-12-20T18:33:45.635Z,17.10
2022-12-20T18:36:12.802Z,21.98
2022-12-20T18:38:41.171Z,25.92
2022-12-20T18:41:09.303Z,27.70
2022-12-20T18:43:36.445Z,23.17
2022-12-20T18:46:11.742Z,25.27
2022-12-20T18:48:39.843Z,27.63
2022-12-20T18:51:07.855Z,30.08
2022-12-20T18:53:36.026Z,29.25
2022-12-20T18:56:07.184Z,25.95
2022-12-20T18:58:36.240Z,27.25
2022-12-20T19:01:06.326Z,29.88
2022-12-20T19:03:33.935Z,25.85
2022-12-20T19:06:01.184Z,26.90
2022-12-20T19:08:29.381Z,27.50
2022-12-20T19:11:10.901Z,28.27
2022-12-20T19:13:38.791Z,24.70
2022-12-20T19:16:07.458Z,27.92
2022-12-20T19:18:35.245Z,23.77
2022-12-20T19:21:06.807Z,26.02
2022-12-20T19:23:35.057Z,25.85
2022-12-20T19:26:05.532Z,26.00
2022-12-20T19:28:33.119Z,25.60
2022-12-20T19:31:06.147Z,26.58
2022-12-20T19:33:33.611Z,24.42
2022-12-20T19:36:08.033Z,24.63
2022-12-20T19:38:35.255Z,23.02
2022-12-20T19:41:02.398Z,26.80
2022-12-20T19:43:29.768Z,26.30
2022-12-20T19:46:00.216Z,25.08
2022-12-20T19:48:27.514Z,24.77
2022-12-20T19:51:13.994Z,22.20
2022-12-20T19:53:42.172Z,27.25
2022-12-20T19:56:09.713Z,23.00
2022-12-20T19:58:37.579Z,25.45
2022-12-20T20:01:05.603Z,25.60
2022-12-20T20:03:32.992Z,23.15
2022-12-20T20:06:00.396Z,28.00
2022-12-20T20:08:27.582Z,19.70
2022-12-20T20:10:55.759Z,26.48
2022-12-20T20:13:23.269Z,23.77
2022-12-20T20:15:51.390Z,25.50
2022-12-20T20:18:18.636Z,22.45
2022-12-20T20:20:45.846Z,23.40
2022-12-20T20:23:13.000Z,23.48
2022-12-20T20:25:50.386Z,23.45
2022-12-20T20:28:17.574Z,24.92
2022-12-20T20:30:46.042Z,21.77
2022-12-20T20:33:13.284Z,22.77
2022-12-20T20:35:40.741Z,24.55
2022-12-20T20:38:08.408Z,20.23
2022-12-20T20:40:35.560Z,23.77
2022-12-20T20:43:02.783Z,25.63
2022-12-20T20:45:30.239Z,24.67
2022-12-20T20:48:00.023Z,23.25
2022-12-20T20:50:31.340Z,23.48
2022-12-20T20:52:58.517Z,22.27
2022-12-20T20:55:25.674Z,25.05
2022-12-20T20:57:52.813Z,26.70
2022-12-20T21:00:20.018Z,29.50
2022-12-20T21:02:47.337Z,22.48
2022-12-20T21:06:06.137Z,28.20
2022-12-20T21:08:01.821Z,23.63
2022-12-20T21:10:29.037Z,23.58
2022-12-20T21:12:56.480Z,23.48
2022-12-20T21:15:26.065Z,26.13
2022-12-20T21:17:53.204Z,24.02
2022-12-20T21:20:25.724Z,26.65
2022-12-20T21:22:53.768Z,24.92
2022-12-20T21:25:21.409Z,23.85
2022-12-20T21:27:48.604Z,23.00
2022-12-20T21:30:15.887Z,21.30
2022-12-20T21:32:43.007Z,19.92
2022-12-20T21:35:10.503Z,20.10
2022-12-20T21:37:37.636Z,19.98
2022-12-20T21:40:05.374Z,23.50
2022-12-20T21:42:33.050Z,21.90
2022-12-20T21:45:00.344Z,21.33
2022-12-20T21:47:27.572Z,20.73
2022-12-20T21:49:54.669Z,22.10
2022-12-20T21:52:21.847Z,18.73
2022-12-20T21:54:49.000Z,21.45
2022-12-20T21:57:16.172Z,22.60
2022-12-20T21:59:43.462Z,17.63
2022-12-20T22:02:14.423Z,18.70
2022-12-20T22:04:41.692Z,17.45
2022-12-20T22:07:09.062Z,15.18
2022-12-20T22:09:36.236Z,16.35
2022-12-20T22:12:03.376Z,14.18
2022-12-20T22:14:30.545Z,14.98
2022-12-20T22:16:57.713Z,13.88
2022-12-20T22:19:24.957Z,15.95
2022-12-20T22:21:57.629Z,15.32
2022-12-20T22:24:25.537Z,16.17
2022-12-20T22:26:52.685Z,14.40
2022-12-20T22:29:20.340Z,14.10
2022-12-20T22:31:47.630Z,13.65
2022-12-20T22:34:15.359Z,14.52
2022-12-20T22:36:43.765Z,15.38
2022-12-20T22:39:11.135Z,12.73
2022-12-20T22:41:38.652Z,10.95
2022-12-20T22:44:05.819Z,13.07
2022-12-20T22:46:33.081Z,13.55
2022-12-20T22:49:01.499Z,12.40
2022-12-20T22:51:30.958Z,14.25
2022-12-20T22:53:59.091Z,10.82
2022-12-20T22:56:26.642Z,11.07
2022-12-20T22:58:53.869Z,12.70
2022-12-20T23:01:21.456Z,14.48
2022-12-20T23:03:49.191Z,11.20
2022-12-20T23:06:17.677Z,11.73
2022-12-20T23:08:44.911Z,16.80
2022-12-20T23:11:44.441Z,11.45
2022-12-20T23:14:31.278Z,12.77
2022-12-20T23:16:58.721Z,12.85
2022-12-20T23:19:26.207Z,14.00
2022-12-20T23:22:12.037Z,14.38
2022-12-20T23:24:39.226Z,13.63
2022-12-20T23:27:06.528Z,12.45
2022-12-20T23:29:34.030Z,14.02
2022-12-20T23:32:01.345Z,15.23
2022-12-20T23:34:28.574Z,15.13
2022-12-20T23:36:55.758Z,12.57
2022-12-20T23:39:22.962Z,12.73
2022-12-20T23:41:50.180Z,14.63
2022-12-20T23:44:17.334Z,13.45
2022-12-20T23:46:44.563Z,12.27
2022-12-20T23:49:11.786Z,13.32
2022-12-20T23:51:39.436Z,14.60
2022-12-20T23:54:06.673Z,14.52
2022-12-20T23:56:33.798Z,14.23
2022-12-20T23:59:02.430Z,15.98
